Time;durP1;ratioP1;P1;durP2;ratioP2;P2;SDS_P1;SDS_P2;PMS_P1;PMS_P2;Temp;Humidity;BMP_temperature;BMP_pressure;BME280_temperature;BME280_humidity;BME280_pressure;Samples;Min_cycle;Max_cycle;Signal;HPM_P1;HPM_P2
2022/04/21 00:02:09;;;;;;;3.20;2.37;;;12.10;99.90;;;;;;5132806;27;20184;-84
2022/04/21 00:04:35;;;;;;;3.07;2.30;;;12.10;99.90;;;;;;5132756;27;20685;-84
2022/04/21 00:07:00;;;;;;;3.87;2.80;;;12.10;99.90;;;;;;5131883;27;20573;-85
2022/04/21 00:09:26;;;;;;;3.43;2.80;;;12.10;99.90;;;;;;5132763;27;20686;-84
2022/04/21 00:11:52;;;;;;;5.07;3.13;;;12.10;99.90;;;;;;5132731;27;20176;-84
2022/04/21 00:14:17;;;;;;;4.30;2.40;;;12.00;99.90;;;;;;5132535;27;20184;-84
2022/04/21 00:16:43;;;;;;;4.53;2.67;;;12.00;99.90;;;;;;5131698;27;20530;-84
2022/04/21 00:19:08;;;;;;;4.10;3.00;;;12.00;99.90;;;;;;5132359;27;20209;-84
2022/04/21 00:24:18;;;;;;;6.13;3.10;;;11.90;99.90;;;;;;5133898;27;20576;-85
2022/04/21 00:26:44;;;;;;;3.77;2.50;;;11.90;99.90;;;;;;5131896;27;20422;-84
2022/04/21 00:29:09;;;;;;;4.40;2.43;;;11.90;99.90;;;;;;5133617;27;20197;-85
2022/04/21 00:31:35;;;;;;;4.40;2.90;;;11.80;99.90;;;;;;5132206;27;20220;-84
2022/04/21 00:34:00;;;;;;;8.03;3.30;;;11.80;99.90;;;;;;5132243;27;20182;-84
2022/04/21 00:36:26;;;;;;;4.17;2.97;;;11.70;99.90;;;;;;5132746;27;20197;-84
2022/04/21 00:38:51;;;;;;;3.40;2.27;;;11.80;99.90;;;;;;5132087;27;20193;-84
2022/04/21 00:41:17;;;;;;;3.83;2.60;;;11.80;99.90;;;;;;5132232;27;20173;-84
2022/04/21 00:43:42;;;;;;;3.93;2.70;;;11.80;99.90;;;;;;5132270;27;20173;-84
2022/04/21 00:46:17;;;;;;;3.30;2.47;;;11.70;99.90;;;;;;5132004;27;20287;-85
2022/04/21 00:48:43;;;;;;;3.77;2.83;;;11.70;99.90;;;;;;5131563;27;20172;-85
2022/04/21 00:51:10;;;;;;;3.63;2.50;;;11.70;99.90;;;;;;5132137;28;20415;-84
2022/04/21 00:53:37;;;;;;;3.57;3.03;;;11.60;99.90;;;;;;5133255;27;20845;-84
2022/04/21 00:56:03;;;;;;;3.60;2.37;;;11.60;99.90;;;;;;5131769;27;20867;-85
2022/04/21 00:58:29;;;;;;;3.10;2.10;;;11.60;99.90;;;;;;5135997;27;20416;-85
2022/04/21 01:00:55;;;;;;;3.57;2.43;;;11.60;99.90;;;;;;5136372;27;20177;-84
2022/04/21 01:03:21;;;;;;;3.40;2.20;;;11.50;99.90;;;;;;5136176;27;20241;-84
2022/04/21 01:05:49;;;;;;;3.57;2.90;;;11.50;99.90;;;;;;5136384;27;20473;-85
2022/04/21 01:08:14;;;;;;;4.00;2.53;;;11.50;99.90;;;;;;5136797;27;20414;-85
2022/04/21 01:10:43;;;;;;;4.87;2.50;;;11.50;99.90;;;;;;5136073;27;20444;-84
2022/04/21 01:13:10;;;;;;;4.33;2.90;;;11.40;99.90;;;;;;5136035;27;20180;-84
2022/04/21 01:15:38;;;;;;;3.87;2.97;;;11.20;99.90;;;;;;5135982;27;20833;-85
2022/04/21 01:18:05;;;;;;;3.00;2.47;;;11.20;99.90;;;;;;5136552;27;20419;-85
2022/04/21 01:20:30;;;;;;;4.63;3.00;;;11.20;99.90;;;;;;5137063;27;20442;-84
2022/04/21 01:22:56;;;;;;;4.43;3.30;;;11.10;99.90;;;;;;5135808;27;20425;-84
2022/04/21 01:25:23;;;;;;;3.87;3.00;;;11.10;99.90;;;;;;5135663;27;20177;-85
2022/04/21 01:27:58;;;;;;;5.80;3.13;;;11.00;99.90;;;;;;5135210;27;20415;-84
2022/04/21 01:30:23;;;;;;;4.30;2.87;;;11.00;99.90;;;;;;5136937;27;20434;-85
2022/04/21 01:32:49;;;;;;;4.23;3.00;;;11.00;99.90;;;;;;5135909;27;20413;-84
2022/04/21 01:35:15;;;;;;;5.53;3.10;;;10.90;99.90;;;;;;5142638;27;20230;-84
2022/04/21 01:43:11;;;;;;;6.23;3.13;;;10.80;99.90;;;;;;5137023;27;20461;-84
2022/04/21 01:45:37;;;;;;;3.90;3.10;;;10.70;99.90;;;;;;5135408;27;20413;-85
2022/04/21 01:48:02;;;;;;;4.40;3.33;;;10.60;99.90;;;;;;5136015;27;20418;-85
2022/04/21 01:50:28;;;;;;;3.70;3.03;;;10.50;99.90;;;;;;5136487;27;20195;-84
2022/04/21 01:52:56;;;;;;;4.93;3.33;;;10.50;99.90;;;;;;5135260;27;20185;-84
2022/04/21 01:55:22;;;;;;;4.30;2.93;;;10.40;99.90;;;;;;5135202;27;20413;-85
2022/04/21 01:57:47;;;;;;;4.00;3.10;;;10.30;99.90;;;;;;5134645;27;20947;-84
2022/04/21 02:00:14;;;;;;;5.57;3.67;;;10.20;99.90;;;;;;5136349;27;20266;-84
2022/04/21 02:02:39;;;;;;;4.53;3.30;;;10.20;99.90;;;;;;5135184;27;20179;-84
2022/04/21 02:05:05;;;;;;;5.73;3.23;;;10.20;99.90;;;;;;5135103;27;20979;-84
2022/04/21 02:07:31;;;;;;;4.53;3.20;;;10.20;99.90;;;;;;5134264;27;20185;-84
2022/04/21 02:09:56;;;;;;;3.90;3.10;;;10.20;99.90;;;;;;5134955;27;20212;-84
2022/04/21 02:12:24;;;;;;;5.50;3.10;;;10.10;99.90;;;;;;5134925;27;20181;-84
2022/04/21 02:14:51;;;;;;;5.10;3.17;;;10.10;99.90;;;;;;5136100;27;20172;-85
2022/04/21 02:17:17;;;;;;;4.37;3.50;;;10.00;99.90;;;;;;5135327;27;20453;-84
2022/04/21 02:19:43;;;;;;;5.23;3.00;;;10.00;99.90;;;;;;5134498;27;20460;-84
2022/04/21 02:22:08;;;;;;;4.20;3.20;;;10.00;99.90;;;;;;5136066;27;20411;-85
2022/04/21 02:24:34;;;;;;;4.87;3.30;;;9.90;99.90;;;;;;5134760;27;20175;-85
2022/04/21 02:26:59;;;;;;;3.90;3.30;;;9.90;99.90;;;;;;5134034;27;20181;-84
2022/04/21 02:29:25;;;;;;;4.93;3.13;;;9.90;99.90;;;;;;5135652;27;20675;-85
2022/04/21 02:31:50;;;;;;;4.00;2.93;;;9.80;99.90;;;;;;5134695;27;20558;-84
2022/04/21 02:34:16;;;;;;;4.67;3.70;;;9.80;99.90;;;;;;5134408;27;20655;-85
2022/04/21 02:36:42;;;;;;;4.63;3.10;;;9.80;99.90;;;;;;5133704;27;20695;-84
2022/04/21 02:39:07;;;;;;;4.80;3.37;;;9.80;99.90;;;;;;5134420;27;20284;-84
2022/04/21 02:41:33;;;;;;;3.90;2.87;;;9.70;99.90;;;;;;5134467;27;20170;-85
2022/04/21 02:43:59;;;;;;;4.17;3.77;;;9.70;99.90;;;;;;5134375;27;20177;-84
2022/04/21 02:46:29;;;;;;;5.83;3.40;;;9.70;99.90;;;;;;5134079;27;20560;-85
2022/04/21 02:48:56;;;;;;;4.50;3.20;;;9.70;99.90;;;;;;5133811;27;20478;-84
2022/04/21 02:51:22;;;;;;;3.77;2.80;;;9.60;99.90;;;;;;5134242;27;20406;-85
2022/04/21 02:59:15;;;;;;;4.60;3.30;;;9.40;99.90;;;;;;5135197;27;20458;-84
2022/04/21 03:01:41;;;;;;;5.10;3.23;;;9.40;99.90;;;;;;5134080;27;20821;-84
2022/04/21 03:04:06;;;;;;;4.70;3.67;;;9.40;99.90;;;;;;5135256;27;20177;-84
2022/04/21 03:06:32;;;;;;;4.17;2.93;;;9.40;99.90;;;;;;5133110;27;20177;-84
2022/04/21 03:08:57;;;;;;;5.50;3.20;;;9.40;99.90;;;;;;5133911;27;20201;-85
2022/04/21 03:11:23;;;;;;;4.40;3.20;;;9.40;99.90;;;;;;5133779;27;20177;-85
2022/04/21 03:13:48;;;;;;;4.20;3.10;;;9.40;99.90;;;;;;5133702;27;20216;-84
2022/04/21 03:16:14;;;;;;;5.33;3.70;;;9.30;99.90;;;;;;5133441;27;20196;-84
2022/04/21 03:18:40;;;;;;;5.70;3.47;;;9.30;99.90;;;;;;5134174;27;20199;-85
2022/04/21 03:26:33;;;;;;;5.00;4.00;;;9.20;99.90;;;;;;5134068;27;20405;-84
2022/04/21 03:28:58;;;;;;;4.33;3.57;;;9.20;99.90;;;;;;5133362;27;20441;-84
2022/04/21 03:31:24;;;;;;;5.70;4.10;;;9.10;99.90;;;;;;5134611;27;20192;-84
2022/04/21 03:33:50;;;;;;;5.40;3.70;;;9.10;99.90;;;;;;5133583;27;20183;-85
2022/04/21 03:36:16;;;;;;;5.00;3.60;;;9.10;99.90;;;;;;5134380;27;20248;-84
2022/04/21 03:38:42;;;;;;;3.80;3.23;;;9.10;99.90;;;;;;5132551;27;20410;-84
2022/04/21 03:41:08;;;;;;;6.07;3.93;;;9.10;99.90;;;;;;5134509;27;20411;-84
2022/04/21 03:43:33;;;;;;;5.10;3.63;;;9.00;99.90;;;;;;5133165;27;20173;-84
2022/04/21 03:45:59;;;;;;;4.90;3.10;;;9.10;99.90;;;;;;5132962;27;20177;-85
2022/04/21 03:48:25;;;;;;;4.50;3.30;;;9.10;99.90;;;;;;5132403;27;20181;-85
2022/04/21 03:50:50;;;;;;;5.40;3.30;;;9.10;99.90;;;;;;5132965;27;20640;-84
2022/04/21 03:53:16;;;;;;;5.37;3.40;;;9.00;99.90;;;;;;5132960;27;20205;-85
2022/04/21 03:55:42;;;;;;;6.77;3.80;;;9.00;99.90;;;;;;5134188;27;20655;-85
2022/04/21 03:58:08;;;;;;;6.47;3.47;;;9.00;99.90;;;;;;5132306;27;20857;-84
2022/04/21 04:00:33;;;;;;;5.90;3.90;;;9.00;99.90;;;;;;5132734;27;20515;-85
2022/04/21 04:02:59;;;;;;;4.63;4.00;;;8.90;99.90;;;;;;5132805;27;20176;-85
2022/04/21 04:05:24;;;;;;;5.13;3.20;;;8.90;99.90;;;;;;5132641;27;20185;-84
2022/04/21 04:10:52;;;;;;;5.80;3.77;;;8.80;99.90;;;;;;5133813;27;20325;-84
2022/04/21 04:13:27;;;;;;;4.37;3.47;;;8.80;99.90;;;;;;5132628;27;20449;-85
2022/04/21 04:15:54;;;;;;;4.17;3.50;;;8.80;99.90;;;;;;5132570;27;20454;-84
2022/04/21 04:18:20;;;;;;;5.60;3.63;;;8.70;99.90;;;;;;5131936;27;20814;-83
2022/04/21 04:20:47;;;;;;;4.40;3.33;;;8.70;99.90;;;;;;5132235;27;20614;-84
2022/04/21 04:23:20;;;;;;;6.03;4.00;;;8.70;99.90;;;;;;5132539;27;20410;-84
2022/04/21 04:25:46;;;;;;;4.73;4.10;;;8.50;99.90;;;;;;5132366;27;20424;-84
2022/04/21 04:28:12;;;;;;;6.47;3.67;;;8.50;99.90;;;;;;5132102;27;20417;-85
2022/04/21 04:30:38;;;;;;;5.77;3.97;;;8.50;99.90;;;;;;5132372;27;20517;-85
2022/04/21 04:33:04;;;;;;;4.30;3.60;;;8.50;99.90;;;;;;5132478;27;20451;-85
2022/04/21 04:35:31;;;;;;;6.43;3.80;;;8.50;99.90;;;;;;5132261;27;20421;-84
2022/04/21 04:37:57;;;;;;;5.60;4.30;;;8.50;99.90;;;;;;5133055;27;20479;-84
2022/04/21 04:40:23;;;;;;;6.97;4.00;;;8.40;99.90;;;;;;5132366;27;20442;-85
2022/04/21 04:42:48;;;;;;;6.10;3.60;;;8.50;99.90;;;;;;5132468;27;20291;-85
2022/04/21 04:47:58;;;;;;;5.27;3.50;;;8.40;99.90;;;;;;5133553;27;20171;-84
2022/04/21 04:50:24;;;;;;;4.70;3.67;;;8.30;99.90;;;;;;5133248;27;20802;-85
2022/04/21 04:52:55;;;;;;;4.80;3.50;;;8.30;99.90;;;;;;5132336;27;20177;-85
2022/04/21 04:55:20;;;;;;;5.33;3.60;;;8.30;99.90;;;;;;5133292;27;20200;-84
2022/04/21 04:57:46;;;;;;;5.50;3.57;;;8.30;99.90;;;;;;5131667;28;20458;-84
2022/04/21 05:00:12;;;;;;;4.63;3.67;;;8.30;99.90;;;;;;5132111;28;20200;-84
2022/04/21 05:02:37;;;;;;;4.83;3.70;;;8.40;99.90;;;;;;5132126;28;20194;-86
2022/04/21 05:05:04;;;;;;;5.67;4.03;;;8.40;99.90;;;;;;5133438;28;20418;-85
2022/04/21 05:07:29;;;;;;;4.40;3.77;;;8.40;99.90;;;;;;5132889;28;20553;-85
2022/04/21 05:09:55;;;;;;;4.87;3.90;;;8.50;99.90;;;;;;5132104;28;20533;-84
2022/04/21 05:12:21;;;;;;;6.70;3.67;;;8.40;99.90;;;;;;5132092;28;20181;-85
2022/04/21 05:14:48;;;;;;;5.90;4.40;;;8.50;99.90;;;;;;5133333;27;20176;-84
2022/04/21 05:17:14;;;;;;;5.13;3.97;;;8.60;99.90;;;;;;5131399;28;20484;-84
2022/04/21 05:19:40;;;;;;;6.30;4.43;;;8.70;99.90;;;;;;5142873;22;20447;-78
2022/04/21 05:22:06;;;;;;;4.40;3.33;;;8.80;99.90;;;;;;5102150;28;20182;-76
2022/04/21 05:24:33;;;;;;;5.10;3.70;;;8.90;99.90;;;;;;5111602;28;20461;-76
2022/04/21 05:26:59;;;;;;;5.27;3.70;;;9.00;99.90;;;;;;5111194;28;20917;-77
2022/04/21 05:32:11;;;;;;;5.27;3.93;;;9.10;99.90;;;;;;5132475;28;20496;-76
2022/04/21 05:34:37;;;;;;;5.10;3.80;;;9.20;99.90;;;;;;5132547;28;20403;-77
2022/04/21 05:37:03;;;;;;;4.27;3.33;;;9.30;99.90;;;;;;5131529;28;20450;-76
2022/04/21 05:39:29;;;;;;;4.47;3.63;;;9.30;99.90;;;;;;5132390;28;20414;-77
2022/04/21 05:41:57;;;;;;;5.83;4.10;;;9.40;99.90;;;;;;5134706;28;20406;-79
2022/04/21 05:44:24;;;;;;;5.03;3.80;;;9.40;99.90;;;;;;5138242;27;20834;-79
2022/04/21 05:46:49;;;;;;;4.80;3.97;;;9.50;99.90;;;;;;5137293;27;20450;-79
2022/04/21 05:49:17;;;;;;;4.30;3.50;;;9.60;99.90;;;;;;5120065;27;20517;-78
2022/04/21 05:51:44;;;;;;;5.00;4.17;;;9.70;99.90;;;;;;5139035;27;20173;-76
2022/04/21 05:54:09;;;;;;;5.30;4.00;;;9.80;99.90;;;;;;5138575;27;20899;-79
2022/04/21 05:56:36;;;;;;;5.47;3.40;;;9.90;99.90;;;;;;5137543;27;20412;-77
2022/04/21 05:59:02;;;;;;;4.67;3.83;;;9.90;99.90;;;;;;5138371;27;20177;-79
2022/04/21 06:01:29;;;;;;;6.10;4.43;;;10.00;99.90;;;;;;5138056;27;20443;-77
2022/04/21 06:03:54;;;;;;;6.90;4.50;;;10.10;99.90;;;;;;5138136;27;20463;-80
2022/04/21 06:06:20;;;;;;;8.00;4.03;;;10.30;99.90;;;;;;5119981;27;20455;-79
2022/04/21 06:08:45;;;;;;;5.20;4.10;;;10.30;99.90;;;;;;5138508;27;20180;-77
2022/04/21 06:11:14;;;;;;;5.30;3.93;;;10.40;99.90;;;;;;5139118;27;20194;-79
2022/04/21 06:13:41;;;;;;;6.37;5.73;;;10.50;99.90;;;;;;5120736;27;20234;-79
2022/04/21 06:16:07;;;;;;;9.33;7.70;;;10.70;99.90;;;;;;5120248;27;20485;-77
2022/04/21 06:18:36;;;;;;;10.50;9.43;;;10.80;99.90;;;;;;5136228;27;20512;-80
2022/04/21 06:21:01;;;;;;;11.83;9.33;;;10.90;99.90;;;;;;5136065;27;20535;-79
2022/04/21 06:23:27;;;;;;;9.67;8.70;;;11.00;99.90;;;;;;5136530;27;20453;-78
2022/04/21 06:25:58;;;;;;;9.90;8.53;;;11.10;99.90;;;;;;5135704;27;20621;-78
2022/04/21 06:28:28;;;;;;;10.30;9.20;;;11.20;99.90;;;;;;5135511;27;20165;-78
2022/04/21 06:30:53;;;;;;;10.43;9.43;;;11.30;99.90;;;;;;5135683;27;20487;-79
2022/04/21 06:33:19;;;;;;;10.60;7.80;;;11.30;99.90;;;;;;5135903;27;20505;-79
2022/04/21 06:35:45;;;;;;;7.60;6.70;;;11.40;99.90;;;;;;5135949;27;20176;-79
2022/04/21 06:38:11;;;;;;;9.73;6.20;;;11.50;99.90;;;;;;5135164;27;20267;-78
2022/04/21 06:40:37;;;;;;;7.57;5.70;;;11.70;99.90;;;;;;5135977;27;20430;-79
2022/04/21 06:48:01;;;;;;;6.90;5.87;;;11.70;99.90;;;;;;5135838;27;20425;-78
2022/04/21 06:48:32;;;;;;;17.30;6.27;;;12.00;99.90;;;;;;5134780;27;20791;-79
2022/04/21 06:50:58;;;;;;;9.60;5.00;;;12.00;99.90;;;;;;5135226;27;20426;-78
2022/04/21 06:53:24;;;;;;;6.27;4.70;;;12.10;99.90;;;;;;5134990;27;20169;-79
2022/04/21 06:55:49;;;;;;;6.37;5.17;;;12.30;99.90;;;;;;5115287;27;20185;-78
2022/04/21 06:58:15;;;;;;;6.57;4.27;;;12.40;99.90;;;;;;5134256;27;20655;-79
2022/04/21 07:00:41;;;;;;;5.37;4.73;;;12.40;99.90;;;;;;5116560;27;20242;-79
2022/04/21 07:03:07;;;;;;;6.67;3.90;;;12.60;99.90;;;;;;5134829;27;20169;-78
2022/04/21 07:05:33;;;;;;;5.27;4.30;;;12.70;99.90;;;;;;5134140;27;20169;-79
2022/04/21 07:07:59;;;;;;;3.80;3.37;;;12.90;99.90;;;;;;5134172;27;20455;-79
2022/04/21 07:10:24;;;;;;;4.70;3.50;;;13.00;99.90;;;;;;5134823;27;20200;-79
2022/04/21 07:12:51;;;;;;;5.57;3.97;;;13.20;99.90;;;;;;5134821;27;20290;-79
2022/04/21 07:15:17;;;;;;;4.90;3.63;;;13.30;99.90;;;;;;5134796;27;20658;-79
2022/04/21 07:17:43;;;;;;;4.40;2.97;;;13.40;99.90;;;;;;5134216;27;20991;-79
2022/04/21 07:20:11;;;;;;;6.33;4.00;;;13.50;99.90;;;;;;5134426;27;20548;-79
2022/04/21 07:22:37;;;;;;;4.43;3.47;;;13.60;99.90;;;;;;5134601;27;20446;-80
2022/04/21 07:25:06;;;;;;;6.53;3.60;;;13.70;99.90;;;;;;5134313;27;20406;-79
2022/04/21 07:27:32;;;;;;;5.90;3.80;;;13.80;99.90;;;;;;5133893;27;20535;-78
2022/04/21 07:29:57;;;;;;;4.57;2.90;;;13.90;99.90;;;;;;5115520;27;20435;-78
2022/04/21 07:32:23;;;;;;;6.17;4.03;;;13.90;99.90;;;;;;5134448;27;20409;-79
2022/04/21 07:34:49;;;;;;;5.13;3.73;;;14.00;99.90;;;;;;5134281;27;20410;-79
2022/04/21 07:37:15;;;;;;;4.70;3.03;;;14.10;99.90;;;;;;5133198;27;20181;-79
2022/04/21 07:39:42;;;;;;;4.03;3.03;;;14.20;99.90;;;;;;5134001;27;20438;-79
2022/04/21 07:42:08;;;;;;;3.90;3.00;;;14.30;99.90;;;;;;5134256;27;20169;-79
2022/04/21 07:44:35;;;;;;;4.27;3.10;;;14.30;99.90;;;;;;5134220;27;20414;-78
2022/04/21 07:47:01;;;;;;;5.00;3.27;;;14.40;99.90;;;;;;5133210;27;20461;-80
2022/04/21 07:49:45;;;;;;;4.70;3.40;;;14.40;99.90;;;;;;5106381;27;20440;-80
2022/04/21 07:55:04;;;;;;;6.03;3.67;;;14.70;99.90;;;;;;5093175;28;20500;-82
2022/04/21 07:57:30;;;;;;;4.33;3.80;;;14.80;99.90;;;;;;5091950;28;20515;-79
2022/04/21 07:59:55;;;;;;;4.53;3.50;;;15.00;99.90;;;;;;5092826;28;20198;-81
2022/04/21 08:02:21;;;;;;;4.87;3.30;;;15.10;99.90;;;;;;5092667;28;20214;-81
2022/04/21 08:04:47;;;;;;;4.57;3.20;;;15.20;99.90;;;;;;5092868;28;20529;-80
2022/04/21 08:07:13;;;;;;;4.13;3.10;;;15.30;99.90;;;;;;5073207;28;20278;-80
2022/04/21 08:09:39;;;;;;;4.40;3.43;;;15.40;99.90;;;;;;5092699;28;20519;-81
2022/04/21 08:12:06;;;;;;;8.00;3.30;;;15.50;99.90;;;;;;5092104;28;20196;-80
2022/04/21 08:14:32;;;;;;;5.17;3.63;;;15.70;99.90;;;;;;5092487;28;20695;-80
2022/04/21 08:16:57;;;;;;;4.20;3.30;;;15.80;99.90;;;;;;5091724;28;20408;-81
2022/04/21 08:19:23;;;;;;;5.17;3.27;;;15.90;99.90;;;;;;5091908;28;20178;-80
2022/04/21 08:21:51;;;;;;;4.40;3.43;;;16.00;99.90;;;;;;5092173;28;20194;-81
2022/04/21 08:32:43;;;;;;;4.23;2.70;;;18.10;99.90;;;;;;5092123;28;20411;-81
2022/04/21 08:35:13;;;;;;;4.83;3.10;;;19.70;99.90;;;;;;5094168;28;20507;-79
2022/04/21 08:37:44;;;;;;;3.50;2.53;;;21.30;99.30;;;;;;5094199;28;20411;-81
2022/04/21 08:40:10;;;;;;;4.43;3.07;;;22.20;97.90;;;;;;5093932;28;20515;-79
2022/04/21 08:42:41;;;;;;;3.80;2.60;;;23.30;92.40;;;;;;5093563;28;20408;-82
2022/04/21 08:45:08;;;;;;;3.30;2.70;;;24.80;79.20;;;;;;5074438;28;20423;-82
2022/04/21 08:47:35;;;;;;;4.57;3.07;;;25.00;77.90;;;;;;5091736;28;20483;-80
2022/04/21 08:50:06;;;;;;;5.00;2.70;;;26.10;70.60;;;;;;5092178;28;20443;-80
2022/04/21 08:52:35;;;;;;;3.63;2.50;;;26.90;60.40;;;;;;5074335;28;20451;-80
2022/04/21 08:55:04;;;;;;;3.50;2.53;;;27.20;57.30;;;;;;5074337;28;20420;-80
2022/04/21 08:57:31;;;;;;;3.30;2.50;;;27.70;54.30;;;;;;5091736;28;20451;-81
2022/04/21 08:59:57;;;;;;;4.20;2.80;;;27.90;51.70;;;;;;5092344;28;20436;-80
2022/04/21 09:02:41;;;;;;;3.90;2.50;;;27.80;49.40;;;;;;5074284;28;20935;-81
2022/04/21 09:05:08;;;;;;;3.00;2.10;;;27.90;48.00;;;;;;5092155;28;20448;-81
2022/04/21 09:07:50;;;;;;;3.57;2.50;;;27.50;46.40;;;;;;5091380;28;20457;-81
2022/04/21 09:10:18;;;;;;;3.10;2.10;;;26.70;46.20;;;;;;5092104;28;20520;-79
2022/04/21 09:12:50;;;;;;;3.00;2.10;;;26.80;47.30;;;;;;5091998;28;20439;-81
2022/04/21 09:15:17;;;;;;;3.43;2.37;;;27.60;47.60;;;;;;5092124;28;20473;-80
2022/04/21 09:18:11;;;;;;;3.80;2.53;;;28.80;44.90;;;;;;5091651;28;20783;-80
2022/04/21 09:20:39;;;;;;;3.20;2.00;;;29.60;44.00;;;;;;5096282;28;20491;-81
2022/04/21 09:23:07;;;;;;;4.10;2.30;;;31.10;41.20;;;;;;5096513;28;20420;-80
2022/04/21 09:25:42;;;;;;;3.10;1.70;;;31.50;37.20;;;;;;5096118;28;20903;-80
2022/04/21 09:28:24;;;;;;;2.73;1.50;;;31.90;34.70;;;;;;5077327;28;20428;-81
2022/04/21 09:30:55;;;;;;;2.97;1.50;;;33.20;35.60;;;;;;5096042;28;20464;-80
2022/04/21 09:33:35;;;;;;;3.87;1.60;;;33.80;30.10;;;;;;5078749;28;20485;-80
2022/04/21 09:36:06;;;;;;;2.40;1.40;;;34.20;27.90;;;;;;5095899;28;20419;-79
2022/04/21 09:38:33;;;;;;;3.30;1.70;;;34.30;27.20;;;;;;5094991;28;20986;-80
2022/04/21 09:41:10;;;;;;;2.17;1.20;;;34.70;27.10;;;;;;5095297;28;20432;-79
2022/04/21 09:43:41;;;;;;;2.57;1.40;;;35.30;26.70;;;;;;5095596;28;20408;-81
2022/04/21 09:46:19;;;;;;;2.53;1.37;;;35.80;26.30;;;;;;5095150;28;20448;-81
2022/04/21 09:48:46;;;;;;;2.40;1.43;;;36.00;25.40;;;;;;5094704;28;20424;-81
2022/04/21 09:51:13;;;;;;;2.30;1.30;;;36.30;25.10;;;;;;5095185;28;20942;-81
2022/04/21 09:53:57;;;;;;;2.40;1.20;;;36.10;24.80;;;;;;5095273;28;20443;-81
2022/04/21 09:56:31;;;;;;;2.43;1.30;;;36.10;24.60;;;;;;5094655;28;20448;-83
2022/04/21 09:58:58;;;;;;;2.20;1.20;;;36.20;24.60;;;;;;5077099;28;20428;-81
2022/04/21 10:01:23;;;;;;;3.17;1.73;;;36.30;24.60;;;;;;5094843;28;20489;-81
2022/04/21 10:03:49;;;;;;;2.30;1.30;;;36.70;24.60;;;;;;5094297;28;20447;-82
2022/04/21 10:06:16;;;;;;;2.93;1.63;;;36.90;25.50;;;;;;5094062;28;20213;-83
2022/04/21 10:08:43;;;;;;;2.23;1.27;;;37.00;25.10;;;;;;5094732;28;20217;-84
2022/04/21 10:11:10;;;;;;;2.57;1.40;;;37.20;24.20;;;;;;5119122;27;20443;-83
2022/04/21 10:13:36;;;;;;;2.70;1.40;;;36.40;24.70;;;;;;5114974;28;20418;-83
2022/04/21 10:16:04;;;;;;;2.67;1.50;;;36.80;24.60;;;;;;5114568;28;20942;-84
2022/04/21 10:18:30;;;;;;;5.30;1.50;;;36.60;24.60;;;;;;5101328;28;20178;-82
2022/04/21 10:20:57;;;;;;;3.37;1.40;;;35.80;23.50;;;;;;5121237;28;21019;-81
2022/04/21 10:23:24;;;;;;;3.07;1.30;;;34.80;24.50;;;;;;5094042;27;20958;-82
2022/04/21 10:26:03;;;;;;;3.00;1.80;;;33.30;25.00;;;;;;5112151;27;20435;-82
2022/04/21 10:28:42;;;;;;;3.13;1.60;;;32.90;26.50;;;;;;5117499;28;20506;-82
2022/04/21 10:31:35;;;;;;;5.70;1.80;;;33.00;26.40;;;;;;5103456;28;20442;-83
2022/04/21 10:34:07;;;;;;;2.90;1.80;;;33.40;25.90;;;;;;5096086;28;20914;-81
2022/04/21 10:36:47;;;;;;;2.63;1.73;;;33.00;25.40;;;;;;5095024;28;20515;-81
2022/04/21 10:39:25;;;;;;;3.10;1.43;;;32.00;26.40;;;;;;5095959;28;20424;-82
2022/04/21 10:42:13;;;;;;;2.97;1.60;;;32.40;28.00;;;;;;5096111;28;20925;-82
2022/04/21 10:44:53;;;;;;;3.40;1.83;;;32.40;26.60;;;;;;5114109;28;20445;-80
2022/04/21 10:47:38;;;;;;;3.00;1.60;;;32.00;27.30;;;;;;5110343;28;20443;-83
2022/04/21 10:50:19;;;;;;;5.53;1.47;;;31.90;27.70;;;;;;5100627;27;20547;-81
2022/04/21 10:58:35;;;;;;;3.70;2.17;;;29.50;29.60;;;;;;5112946;28;20418;-81
2022/04/21 11:01:22;;;;;;;3.47;2.23;;;29.00;30.00;;;;;;5095544;28;20435;-81
2022/04/21 11:04:11;;;;;;;3.30;2.10;;;28.20;30.60;;;;;;5117585;28;20407;-81
2022/04/21 11:06:39;;;;;;;2.57;1.70;;;28.00;31.30;;;;;;5116889;28;20430;-81
2022/04/21 11:09:04;;;;;;;2.93;1.83;;;28.10;31.20;;;;;;5098220;28;20411;-82
2022/04/21 11:11:46;;;;;;;4.13;1.97;;;27.60;32.00;;;;;;5116898;28;20442;-82
2022/04/21 11:14:27;;;;;;;2.70;1.70;;;26.80;32.70;;;;;;5097825;28;20181;-82
2022/04/21 11:16:53;;;;;;;2.93;1.77;;;26.10;34.10;;;;;;5095587;28;20532;-81
2022/04/21 11:19:36;;;;;;;3.27;1.90;;;25.80;34.70;;;;;;5098415;28;20420;-81
2022/04/21 11:22:13;;;;;;;3.37;1.90;;;25.20;35.20;;;;;;5108747;22;20230;-82
2022/04/21 11:25:01;;;;;;;3.43;2.07;;;25.30;36.40;;;;;;5084833;28;20412;-81
2022/04/21 11:27:26;;;;;;;3.10;1.93;;;25.30;36.40;;;;;;5057353;28;20421;-83
2022/04/21 11:29:57;;;;;;;3.20;2.10;;;25.30;36.40;;;;;;5061008;28;20427;-81
2022/04/21 11:32:23;;;;;;;3.23;2.00;;;25.20;36.40;;;;;;5057126;28;20206;-80
2022/04/21 11:34:58;;;;;;;3.20;1.80;;;25.00;37.30;;;;;;5073906;28;20833;-79
2022/04/21 11:37:23;;;;;;;5.63;2.07;;;25.10;36.40;;;;;;5061267;28;20632;-81
2022/04/21 11:39:49;;;;;;;3.47;2.03;;;25.30;37.90;;;;;;5063846;28;20413;-82
2022/04/21 11:42:27;;;;;;;4.80;2.20;;;25.30;37.50;;;;;;5062510;28;20203;-83
2022/04/21 11:44:54;;;;;;;2.93;2.07;;;25.10;37.50;;;;;;5062530;28;20209;-81
2022/04/21 11:47:20;;;;;;;2.80;1.80;;;25.20;38.50;;;;;;5080239;28;20417;-82
2022/04/21 11:50:01;;;;;;;4.40;2.27;;;25.80;40.10;;;;;;5064720;28;20418;-81
2022/04/21 11:52:29;;;;;;;2.97;2.10;;;26.00;36.50;;;;;;5081316;28;20437;-81
2022/04/21 11:55:02;;;;;;;3.17;1.80;;;26.40;37.70;;;;;;5062721;28;20435;-82
2022/04/21 11:57:41;;;;;;;3.00;2.47;;;27.00;36.90;;;;;;5063116;28;20464;-82
2022/04/21 12:00:08;;;;;;;3.27;2.07;;;27.10;35.60;;;;;;5061826;28;20480;-81
2022/04/21 12:08:04;;;;;;;3.80;2.40;;;28.10;36.10;;;;;;5077492;28;20432;-82
2022/04/21 12:10:29;;;;;;;3.70;2.30;;;28.20;35.30;;;;;;5061348;28;20452;-82
2022/04/21 12:12:55;;;;;;;3.67;2.00;;;28.70;35.40;;;;;;5084169;28;20409;-81
2022/04/21 12:15:28;;;;;;;3.60;2.00;;;29.30;36.20;;;;;;5077820;28;20175;-82
2022/04/21 12:18:01;;;;;;;3.00;2.00;;;29.60;35.00;;;;;;5059068;28;20238;-81
2022/04/21 12:20:27;;;;;;;3.50;2.40;;;29.10;34.30;;;;;;5061868;28;20456;-84
2022/04/21 12:22:56;;;;;;;4.23;2.50;;;28.40;34.40;;;;;;5063781;28;20912;-83
2022/04/21 12:25:30;;;;;;;6.73;2.40;;;29.40;34.50;;;;;;5062192;28;20443;-83
2022/04/21 12:27:56;;;;;;;3.00;2.20;;;29.60;35.00;;;;;;5076732;28;20424;-82
2022/04/21 12:30:21;;;;;;;5.40;2.97;;;32.10;34.30;;;;;;5082661;28;20423;-83
2022/04/21 12:32:49;;;;;;;3.60;2.40;;;33.00;32.10;;;;;;5065067;28;20477;-82
2022/04/21 12:35:16;;;;;;;4.33;2.40;;;32.60;31.30;;;;;;5080782;28;20189;-84
2022/04/21 12:40:38;;;;;;;4.30;2.50;;;32.40;31.80;;;;;;5079081;28;20500;-82
2022/04/21 12:43:04;;;;;;;3.83;2.60;;;32.10;32.10;;;;;;5086046;28;20432;-83
2022/04/21 12:45:30;;;;;;;3.23;2.20;;;31.40;31.70;;;;;;5090976;28;20456;-81
2022/04/21 12:47:58;;;;;;;3.37;2.20;;;31.30;32.50;;;;;;5075296;28;20186;-83
2022/04/21 12:50:25;;;;;;;4.93;2.50;;;31.10;32.30;;;;;;5078561;28;20265;-84
2022/04/21 12:52:54;;;;;;;3.43;2.50;;;32.60;32.10;;;;;;5060391;28;20409;-80
2022/04/21 12:55:19;;;;;;;3.27;2.30;;;33.60;31.10;;;;;;5077155;28;20417;-81
2022/04/21 12:58:01;;;;;;;3.70;2.63;;;33.30;31.20;;;;;;5073841;28;20967;-82
2022/04/21 13:00:27;;;;;;;5.17;2.73;;;33.20;31.00;;;;;;5061536;28;20178;-80
2022/04/21 13:02:52;;;;;;;3.77;2.10;;;32.70;31.20;;;;;;5078061;28;20452;-80
2022/04/21 13:05:18;;;;;;;4.07;2.43;;;32.20;31.70;;;;;;5088568;28;20420;-81
2022/04/21 13:07:43;;;;;;;3.73;2.30;;;32.90;32.40;;;;;;5085930;28;20214;-80
2022/04/21 13:10:09;;;;;;;3.83;2.87;;;33.70;31.30;;;;;;5083459;28;20179;-81
2022/04/21 13:12:35;;;;;;;3.60;2.07;;;34.40;30.90;;;;;;5105235;28;21000;-78
2022/04/21 13:15:02;;;;;;;4.73;2.57;;;35.80;30.60;;;;;;5097811;28;20301;-82
2022/04/21 13:17:27;;;;;;;3.40;2.33;;;36.10;29.50;;;;;;5086126;28;20206;-80
2022/04/21 13:19:53;;;;;;;4.17;2.30;;;36.40;29.50;;;;;;5081246;28;20438;-78
2022/04/21 13:22:19;;;;;;;3.83;2.33;;;35.50;29.10;;;;;;5098755;28;20286;-82
2022/04/21 13:24:45;;;;;;;4.07;2.70;;;35.00;29.30;;;;;;5081076;28;20182;-80
2022/04/21 13:27:10;;;;;;;3.43;2.50;;;33.60;29.80;;;;;;5097677;28;20420;-78
2022/04/21 13:29:36;;;;;;;3.70;2.90;;;32.40;30.30;;;;;;5098276;28;20182;-78
2022/04/21 13:34:46;;;;;;;4.57;2.73;;;29.90;33.30;;;;;;5095653;28;20174;-79
2022/04/21 13:37:12;;;;;;;3.83;2.60;;;28.50;33.20;;;;;;5096360;28;20452;-80
2022/04/21 13:39:40;;;;;;;3.43;2.27;;;28.00;34.70;;;;;;5079055;28;20200;-79
2022/04/21 13:42:06;;;;;;;3.60;2.70;;;27.70;35.40;;;;;;5079429;28;20204;-79
2022/04/21 13:44:32;;;;;;;3.17;2.40;;;27.10;36.60;;;;;;5077971;28;20474;-79
2022/04/21 13:46:58;;;;;;;3.63;2.57;;;26.90;37.00;;;;;;5094997;28;20420;-80
2022/04/21 13:49:24;;;;;;;4.50;2.37;;;27.00;37.20;;;;;;5095680;28;20642;-79
2022/04/21 13:51:50;;;;;;;2.93;2.27;;;28.10;38.50;;;;;;5093904;28;20425;-80
2022/04/21 13:54:17;;;;;;;3.60;2.83;;;28.80;36.20;;;;;;5094920;28;20776;-79